createdAt,value
2019-01-17T00:02:15.267Z,10.50
2019-01-17T00:05:04.754Z,10.57
2019-01-17T00:08:12.772Z,9.57
2019-01-17T00:10:51.099Z,8.13
2019-01-17T00:13:50.978Z,10.43
2019-01-17T00:16:56.272Z,9.97
2019-01-17T00:19:55.145Z,11.23
2019-01-17T00:22:46.584Z,12.03
2019-01-17T00:25:34.858Z,13.17
2019-01-17T00:28:27.689Z,11.87
2019-01-17T00:31:17.905Z,12.40
2019-01-17T00:34:00.126Z,12.83
2019-01-17T00:36:55.250Z,10.33
2019-01-17T00:39:47.552Z,11.63
2019-01-17T00:42:31.630Z,10.33
2019-01-17T00:45:36.119Z,10.83
2019-01-17T00:48:15.947Z,10.37
2019-01-17T00:51:08.174Z,9.67
2019-01-17T00:53:57.434Z,9.07
2019-01-17T00:56:47.709Z,9.37
2019-01-17T00:59:46.300Z,8.33
2019-01-17T01:02:44.638Z,7.70
2019-01-17T01:05:33.194Z,7.60
2019-01-17T01:08:23.159Z,7.23
2019-01-17T01:11:31.776Z,7.57
2019-01-17T01:14:21.287Z,7.13
2019-01-17T01:17:14.067Z,7.60
2019-01-17T01:20:18.525Z,7.30
2019-01-17T01:23:26.468Z,7.77
2019-01-17T01:26:17.534Z,7.73
2019-01-17T01:29:22.410Z,7.43
2019-01-17T01:32:19.534Z,7.20
2019-01-17T01:35:24.056Z,7.93
2019-01-17T01:38:12.580Z,8.57
2019-01-17T01:40:52.129Z,8.70
2019-01-17T01:43:41.515Z,11.73
2019-01-17T01:46:43.237Z,10.13
2019-01-17T01:49:35.615Z,12.10
2019-01-17T01:52:14.236Z,12.40
2019-01-17T01:54:44.899Z,11.63
2019-01-17T01:57:16.426Z,11.90
2019-01-17T01:59:47.159Z,10.50
2019-01-17T02:02:17.626Z,10.70
2019-01-17T02:04:48.254Z,10.87
2019-01-17T02:07:18.677Z,8.10
2019-01-17T02:09:49.138Z,7.07
2019-01-17T02:12:19.605Z,8.97
2019-01-17T02:14:50.441Z,8.97
2019-01-17T02:17:21.152Z,8.10
2019-01-17T02:19:51.676Z,7.80
2019-01-17T02:22:22.214Z,7.60
2019-01-17T02:24:52.841Z,6.97
2019-01-17T02:27:23.459Z,8.93
2019-01-17T02:29:53.900Z,9.63
2019-01-17T02:32:24.385Z,10.37
2019-01-17T02:34:54.797Z,10.00
2019-01-17T02:37:25.345Z,14.03
2019-01-17T02:39:57.841Z,14.50
2019-01-17T02:42:28.384Z,14.73
2019-01-17T02:44:59.097Z,14.40
2019-01-17T02:47:29.522Z,16.07
2019-01-17T02:50:00.485Z,15.30
2019-01-17T02:52:31.069Z,15.60
2019-01-17T02:55:01.512Z,17.73
2019-01-17T02:57:33.535Z,15.00
2019-01-17T03:00:05.264Z,15.67
2019-01-17T03:02:35.852Z,17.10
2019-01-17T03:05:07.099Z,14.07
2019-01-17T03:07:37.623Z,13.50
2019-01-17T03:10:11.881Z,10.33
2019-01-17T03:12:42.735Z,8.57
2019-01-17T03:15:13.510Z,8.20
2019-01-17T03:17:44.301Z,7.37
2019-01-17T03:20:15.248Z,7.10
2019-01-17T03:22:45.747Z,8.90
2019-01-17T03:25:16.462Z,8.93
2019-01-17T03:27:47.130Z,9.13
2019-01-17T03:30:19.206Z,8.60
2019-01-17T03:32:49.763Z,7.80
2019-01-17T03:35:20.394Z,8.00
2019-01-17T03:37:50.985Z,5.60
2019-01-17T03:40:21.530Z,7.17
2019-01-17T03:42:52.001Z,6.00
2019-01-17T03:45:22.419Z,4.73
2019-01-17T03:47:52.911Z,5.03
2019-01-17T03:50:23.533Z,5.10
2019-01-17T03:52:54.112Z,4.97
2019-01-17T03:55:24.998Z,5.03
2019-01-17T03:57:56.343Z,5.10
2019-01-17T04:00:27.197Z,5.10
2019-01-17T04:02:57.839Z,4.70
2019-01-17T04:05:28.491Z,4.50
2019-01-17T04:07:58.935Z,4.00
2019-01-17T04:10:30.563Z,3.90
2019-01-17T04:13:02.299Z,3.67
2019-01-17T04:15:33.152Z,3.93
2019-01-17T04:18:03.640Z,3.80
2019-01-17T04:20:34.253Z,4.93
2019-01-17T04:23:04.841Z,3.90
2019-01-17T04:25:35.518Z,6.93
2019-01-17T04:28:06.083Z,7.77
2019-01-17T04:30:36.600Z,7.37
2019-01-17T04:33:07.299Z,8.20
2019-01-17T04:35:37.736Z,8.03
2019-01-17T04:38:08.217Z,7.07
2019-01-17T04:40:38.744Z,8.17
2019-01-17T04:43:09.444Z,7.00
2019-01-17T04:45:41.953Z,7.70
2019-01-17T04:48:12.553Z,7.43
2019-01-17T04:50:43.714Z,6.23
2019-01-17T04:53:15.431Z,6.80
2019-01-17T04:55:46.129Z,7.00
2019-01-17T04:58:16.846Z,6.33
2019-01-17T05:00:47.580Z,6.83
2019-01-17T05:03:18.054Z,6.47
2019-01-17T05:05:48.569Z,7.27
2019-01-17T05:08:19.498Z,7.87
2019-01-17T05:10:50.164Z,6.87
2019-01-17T05:13:21.148Z,7.73
2019-01-17T05:15:51.633Z,6.27
2019-01-17T05:18:22.286Z,6.77
2019-01-17T05:20:52.893Z,8.03
2019-01-17T05:23:24.489Z,8.40
2019-01-17T05:25:54.895Z,7.37
2019-01-17T05:28:25.386Z,7.80
2019-01-17T05:30:55.940Z,6.13
2019-01-17T05:33:26.437Z,6.93
2019-01-17T05:35:56.852Z,5.80
2019-01-17T05:38:27.412Z,6.37
2019-01-17T05:40:58.016Z,6.20
2019-01-17T05:43:29.326Z,6.17
2019-01-17T05:45:59.855Z,6.07
2019-01-17T05:48:30.448Z,6.62
2019-01-17T05:51:00.919Z,5.27
2019-01-17T05:53:31.635Z,5.37
2019-01-17T05:56:02.207Z,5.40
2019-01-17T05:58:33.941Z,5.20
2019-01-17T06:01:04.835Z,5.33
2019-01-17T06:03:35.511Z,5.90
2019-01-17T06:06:06.043Z,5.73
2019-01-17T06:08:36.640Z,5.90
2019-01-17T06:11:07.934Z,6.47
2019-01-17T06:13:38.475Z,5.40
2019-01-17T06:16:09.197Z,5.10
2019-01-17T06:18:39.886Z,5.27
2019-01-17T06:21:10.599Z,4.43
2019-01-17T06:23:42.683Z,5.03
2019-01-17T06:26:13.660Z,4.60
2019-01-17T06:28:44.255Z,4.97
2019-01-17T06:31:15.229Z,5.33
2019-01-17T06:33:45.896Z,4.30
2019-01-17T06:36:16.595Z,4.23
2019-01-17T06:38:47.174Z,4.20
2019-01-17T06:41:18.011Z,3.70
2019-01-17T06:43:48.631Z,3.87
2019-01-17T06:46:19.688Z,4.10
2019-01-17T06:48:50.467Z,3.43
2019-01-17T06:51:21.238Z,3.73
2019-01-17T06:53:52.031Z,4.17
2019-01-17T06:56:22.807Z,4.10
2019-01-17T06:58:53.415Z,4.03
2019-01-17T07:01:24.528Z,5.10
2019-01-17T07:03:55.278Z,4.63
2019-01-17T07:06:25.952Z,4.67
2019-01-17T07:08:56.685Z,4.17
2019-01-17T07:11:27.167Z,4.37
2019-01-17T07:13:57.823Z,4.63
2019-01-17T07:16:29.728Z,5.70
2019-01-17T07:19:00.349Z,5.50
2019-01-17T07:21:31.227Z,4.30
2019-01-17T07:24:02.060Z,4.50
2019-01-17T07:26:32.935Z,4.97
2019-01-17T07:29:03.687Z,4.87
2019-01-17T07:31:34.375Z,4.97
2019-01-17T07:34:05.365Z,5.03
2019-01-17T07:36:36.134Z,4.27
2019-01-17T07:39:08.482Z,4.57
2019-01-17T07:41:38.985Z,5.57
2019-01-17T07:44:09.520Z,4.73
2019-01-17T07:46:40.231Z,5.73
2019-01-17T07:49:10.729Z,8.07
2019-01-17T07:51:41.378Z,8.10
2019-01-17T07:54:11.910Z,6.37
2019-01-17T07:56:43.505Z,6.30
2019-01-17T07:59:13.974Z,5.97
2019-01-17T08:01:44.668Z,6.47
2019-01-17T08:04:15.402Z,6.40
2019-01-17T08:06:46.235Z,6.93
2019-01-17T08:09:16.806Z,6.63
2019-01-17T08:11:47.388Z,7.50
2019-01-17T08:14:18.123Z,7.97
2019-01-17T08:16:48.922Z,8.03
2019-01-17T08:19:19.738Z,7.23
2019-01-17T08:21:50.489Z,7.50
2019-01-17T08:24:21.052Z,6.67
2019-01-17T08:26:51.928Z,7.07
2019-01-17T08:29:22.480Z,7.23
2019-01-17T08:31:53.059Z,7.17
2019-01-17T08:34:28.254Z,6.90
2019-01-17T08:36:55.984Z,5.70
2019-01-17T08:39:26.840Z,4.73
2019-01-17T08:41:57.384Z,3.63
2019-01-17T08:44:28.180Z,3.50
2019-01-17T08:46:58.972Z,2.90
2019-01-17T08:49:29.434Z,3.57
2019-01-17T08:52:00.128Z,3.47
2019-01-17T08:54:30.733Z,3.63
2019-01-17T08:57:01.572Z,3.10
2019-01-17T08:59:32.331Z,3.67
2019-01-17T09:02:02.844Z,3.80
2019-01-17T09:04:33.501Z,4.10
2019-01-17T09:07:04.101Z,3.50
2019-01-17T09:09:34.937Z,3.70
2019-01-17T09:12:05.846Z,3.47
2019-01-17T09:14:36.655Z,3.13
2019-01-17T09:17:07.315Z,4.27
2019-01-17T09:19:38.147Z,3.67
2019-01-17T09:22:08.762Z,3.40
2019-01-17T09:24:39.467Z,3.27
2019-01-17T09:27:10.123Z,3.53
2019-01-17T09:29:41.077Z,3.30
2019-01-17T09:32:11.561Z,2.83
2019-01-17T09:34:42.303Z,3.60
2019-01-17T09:37:13.990Z,4.13
2019-01-17T09:39:44.556Z,3.83
2019-01-17T09:42:15.102Z,3.40
2019-01-17T09:44:46.072Z,3.50
2019-01-17T09:47:16.818Z,3.57
2019-01-17T09:49:47.536Z,3.63
2019-01-17T09:52:18.060Z,3.87
2019-01-17T09:54:48.948Z,4.30
2019-01-17T09:57:19.665Z,4.27
2019-01-17T09:59:50.846Z,4.43
2019-01-17T10:02:21.273Z,4.30
2019-01-17T10:04:51.832Z,4.17
2019-01-17T10:07:22.517Z,4.77
2019-01-17T10:09:53.197Z,3.90
2019-01-17T10:12:23.852Z,4.03
2019-01-17T10:14:54.763Z,3.60
2019-01-17T10:17:45.194Z,3.83
2019-01-17T10:20:45.759Z,3.90
2019-01-17T10:23:54.607Z,3.43
2019-01-17T10:26:45.049Z,4.13
2019-01-17T10:29:56.493Z,4.30
2019-01-17T10:32:59.957Z,3.90
2019-01-17T10:36:19.079Z,4.20
2019-01-17T10:39:27.825Z,3.50
2019-01-17T10:42:24.121Z,3.40
2019-01-17T10:45:42.145Z,3.43
2019-01-17T10:49:05.900Z,3.77
2019-01-17T10:52:16.261Z,3.63
2019-01-17T10:55:33.033Z,4.63
2019-01-17T10:58:31.226Z,3.90
2019-01-17T11:01:44.717Z,4.00
2019-01-17T11:04:59.579Z,3.93
2019-01-17T11:08:07.567Z,4.40
2019-01-17T11:11:17.867Z,4.50
2019-01-17T11:14:29.298Z,4.80
2019-01-17T11:17:38.501Z,4.50
2019-01-17T11:20:35.421Z,5.00
2019-01-17T11:23:23.826Z,5.10
2019-01-17T11:26:53.484Z,5.70
2019-01-17T11:30:13.789Z,6.17
2019-01-17T11:33:34.857Z,6.10
2019-01-17T11:36:28.347Z,5.87
2019-01-17T11:39:20.105Z,5.60
2019-01-17T11:42:20.330Z,6.13
2019-01-17T11:45:25.065Z,6.57
2019-01-17T11:48:50.049Z,7.10
2019-01-17T11:51:53.938Z,6.30
2019-01-17T11:55:02.773Z,6.03
2019-01-17T11:58:35.435Z,6.47
2019-01-17T12:01:38.725Z,6.57
2019-01-17T12:04:39.429Z,6.13
2019-01-17T12:07:15.861Z,7.23
2019-01-17T12:09:46.365Z,6.97
2019-01-17T12:12:21.808Z,6.37
2019-01-17T12:14:53.986Z,4.43
2019-01-17T12:17:24.569Z,4.13
2019-01-17T12:19:55.342Z,3.27
2019-01-17T12:22:25.869Z,3.63
2019-01-17T12:24:56.552Z,3.70
2019-01-17T12:27:27.164Z,3.90
2019-01-17T12:29:57.705Z,3.90
2019-01-17T12:32:28.283Z,3.97
2019-01-17T12:34:59.058Z,4.47
2019-01-17T12:37:29.846Z,4.80
2019-01-17T12:40:00.681Z,5.43
2019-01-17T12:42:31.454Z,4.10
2019-01-17T12:45:02.034Z,3.93
2019-01-17T12:47:32.568Z,4.93
2019-01-17T12:50:03.150Z,5.20
2019-01-17T12:52:34.007Z,5.30
2019-01-17T12:55:04.869Z,5.30
2019-01-17T12:57:36.660Z,4.77
2019-01-17T13:00:10.429Z,5.07
2019-01-17T13:02:41.293Z,5.70
2019-01-17T13:05:12.492Z,5.80
2019-01-17T13:07:42.988Z,5.50
2019-01-17T13:10:14.196Z,5.03
2019-01-17T13:12:44.882Z,5.27
2019-01-17T13:15:15.531Z,4.97
2019-01-17T13:17:46.140Z,5.43
2019-01-17T13:20:17.631Z,4.77
2019-01-17T13:22:48.577Z,5.47
2019-01-17T13:25:21.274Z,4.33
2019-01-17T13:27:52.961Z,5.40
2019-01-17T13:30:24.490Z,4.77
2019-01-17T13:32:55.144Z,5.80
2019-01-17T13:35:26.753Z,5.13
2019-01-17T13:37:57.508Z,5.33
2019-01-17T13:40:28.155Z,5.80
2019-01-17T13:42:58.702Z,5.40
2019-01-17T13:45:30.645Z,5.20
2019-01-17T13:48:01.759Z,4.53
2019-01-17T13:50:32.643Z,5.40
2019-01-17T13:53:03.482Z,5.50
2019-01-17T13:55:34.337Z,4.97
2019-01-17T13:58:05.241Z,4.57
2019-01-17T14:00:35.805Z,5.10
2019-01-17T14:03:06.890Z,4.57
2019-01-17T14:05:37.756Z,4.77
2019-01-17T14:08:08.434Z,4.53
2019-01-17T14:10:39.095Z,4.97
2019-01-17T14:13:09.805Z,5.00
2019-01-17T14:15:40.451Z,4.40
2019-01-17T14:18:11.165Z,4.80
2019-01-17T14:20:41.948Z,5.23
2019-01-17T14:23:12.598Z,4.73
2019-01-17T14:25:43.407Z,4.53
2019-01-17T14:28:13.951Z,4.83
2019-01-17T14:30:44.890Z,5.00
2019-01-17T14:33:15.486Z,5.47
2019-01-17T14:35:46.237Z,5.33
2019-01-17T14:38:16.817Z,5.43
2019-01-17T14:40:47.989Z,5.33
2019-01-17T14:43:18.494Z,5.73
2019-01-17T14:45:49.659Z,5.10
2019-01-17T14:48:22.086Z,6.00
2019-01-17T14:50:52.692Z,5.60
2019-01-17T14:53:23.228Z,5.17
2019-01-17T14:55:53.908Z,5.20
2019-01-17T14:58:26.115Z,5.57
2019-01-17T15:00:56.625Z,5.00
2019-01-17T15:03:27.593Z,4.90
2019-01-17T15:05:58.055Z,4.27
2019-01-17T15:08:28.761Z,5.67
2019-01-17T15:11:02.482Z,4.93
2019-01-17T15:13:37.651Z,5.57
2019-01-17T15:16:09.453Z,5.17
2019-01-17T15:18:40.343Z,4.60
2019-01-17T15:21:10.941Z,5.67
2019-01-17T15:23:41.737Z,5.03
2019-01-17T15:26:12.442Z,4.23
2019-01-17T15:28:43.304Z,4.67
2019-01-17T15:31:14.279Z,5.87
2019-01-17T15:33:44.953Z,5.00
2019-01-17T15:36:15.830Z,5.03
2019-01-17T15:38:46.305Z,5.67
2019-01-17T15:41:18.604Z,5.57
2019-01-17T15:43:49.103Z,5.93
2019-01-17T15:46:19.605Z,6.00
2019-01-17T15:48:50.125Z,6.00
2019-01-17T15:51:21.374Z,6.90
2019-01-17T15:53:52.068Z,7.20
2019-01-17T15:56:24.190Z,6.50
2019-01-17T15:58:54.654Z,8.23
2019-01-17T16:01:27.105Z,8.33
2019-01-17T16:03:57.706Z,7.93
2019-01-17T16:06:28.386Z,8.30
2019-01-17T16:08:59.013Z,8.43
2019-01-17T16:11:29.694Z,7.53
2019-01-17T16:14:00.146Z,8.60
2019-01-17T16:16:30.941Z,9.27
2019-01-17T16:19:01.630Z,9.30
2019-01-17T16:21:32.142Z,8.87
2019-01-17T16:24:02.545Z,7.00
2019-01-17T16:26:33.889Z,13.43
2019-01-17T16:29:04.551Z,8.37
2019-01-17T16:31:35.017Z,7.93
2019-01-17T16:34:05.785Z,8.70
2019-01-17T16:36:37.384Z,8.60
2019-01-17T16:39:10.028Z,8.23
2019-01-17T16:41:40.713Z,9.07
2019-01-17T16:44:11.291Z,9.83
2019-01-17T16:46:41.891Z,9.27
2019-01-17T16:49:12.706Z,10.63
2019-01-17T16:51:43.356Z,10.30
2019-01-17T16:54:14.037Z,12.03
2019-01-17T16:56:44.719Z,9.87
2019-01-17T16:59:15.341Z,9.23
2019-01-17T17:01:46.061Z,9.93
2019-01-17T17:04:16.613Z,8.70
2019-01-17T17:06:47.329Z,9.17
2019-01-17T17:09:19.332Z,10.20
2019-01-17T17:11:49.930Z,9.17
2019-01-17T17:14:20.352Z,9.60
2019-01-17T17:16:51.083Z,8.53
2019-01-17T17:19:21.958Z,9.47
2019-01-17T17:21:52.886Z,9.03
2019-01-17T17:24:25.141Z,8.77
2019-01-17T17:26:55.960Z,8.00
2019-01-17T17:29:28.260Z,8.57
2019-01-17T17:31:59.214Z,7.80
2019-01-17T17:34:29.685Z,8.20
2019-01-17T17:37:00.885Z,9.10
2019-01-17T17:39:31.785Z,10.00
2019-01-17T17:42:04.141Z,9.17
2019-01-17T17:44:34.834Z,9.93
2019-01-17T17:47:05.663Z,9.10
2019-01-17T17:49:36.600Z,8.30
2019-01-17T17:52:07.400Z,8.27
2019-01-17T17:54:38.149Z,8.60
2019-01-17T17:57:09.023Z,9.03
2019-01-17T17:59:40.236Z,8.33
2019-01-17T18:02:19.415Z,9.17
2019-01-17T18:04:50.061Z,9.73
2019-01-17T18:07:20.686Z,10.23
2019-01-17T18:09:51.417Z,9.37
2019-01-17T18:12:22.276Z,8.60
2019-01-17T18:14:52.806Z,9.87
2019-01-17T18:17:23.539Z,9.67
2019-01-17T18:19:54.738Z,10.07
2019-01-17T18:22:25.471Z,9.90
2019-01-17T18:24:57.171Z,8.47
2019-01-17T18:27:27.801Z,9.00
2019-01-17T18:29:58.430Z,11.77
2019-01-17T18:32:29.257Z,12.63
2019-01-17T18:34:59.916Z,9.47
2019-01-17T18:37:30.775Z,11.60
2019-01-17T18:40:01.420Z,12.03
2019-01-17T18:42:32.382Z,10.80
2019-01-17T18:45:03.068Z,11.37
2019-01-17T18:47:33.746Z,11.97
2019-01-17T18:50:04.917Z,11.73
2019-01-17T18:52:36.427Z,11.97
2019-01-17T18:55:07.629Z,10.20
2019-01-17T18:57:38.420Z,9.67
2019-01-17T19:00:18.624Z,11.47
2019-01-17T19:02:49.654Z,9.97
2019-01-17T19:05:21.983Z,9.10
2019-01-17T19:07:53.036Z,9.63
2019-01-17T19:10:24.072Z,8.47
2019-01-17T19:12:55.090Z,8.43
2019-01-17T19:15:28.346Z,9.60
2019-01-17T19:17:58.839Z,8.70
2019-01-17T19:20:29.950Z,10.27
2019-01-17T19:23:00.893Z,9.23
2019-01-17T19:25:31.691Z,8.80
2019-01-17T19:28:02.558Z,10.33
2019-01-17T19:30:33.469Z,10.80
2019-01-17T19:33:05.356Z,10.13
2019-01-17T19:35:36.173Z,10.33
2019-01-17T19:38:06.938Z,9.87
2019-01-17T19:40:37.824Z,9.40
2019-01-17T19:43:08.391Z,9.30
2019-01-17T19:45:39.115Z,9.53
2019-01-17T19:48:09.739Z,9.63
2019-01-17T19:50:40.757Z,9.23
2019-01-17T19:53:11.822Z,8.43
2019-01-17T19:55:42.609Z,6.43
2019-01-17T19:58:13.279Z,8.27
2019-01-17T20:00:43.930Z,8.57
2019-01-17T20:03:14.907Z,7.57
2019-01-17T20:05:45.870Z,7.80
2019-01-17T20:08:16.562Z,8.17
2019-01-17T20:10:47.365Z,7.80
2019-01-17T20:13:18.077Z,7.07
2019-01-17T20:15:50.317Z,8.20
2019-01-17T20:18:21.251Z,7.50
2019-01-17T20:20:52.444Z,6.90
2019-01-17T20:23:24.330Z,8.07
2019-01-17T20:25:54.930Z,7.70
2019-01-17T20:28:26.031Z,7.50
2019-01-17T20:30:57.030Z,6.97
2019-01-17T20:33:28.060Z,6.63
2019-01-17T20:36:33.472Z,7.17
2019-01-17T20:39:05.095Z,7.57
2019-01-17T20:41:36.340Z,7.80
2019-01-17T20:44:07.107Z,8.00
2019-01-17T20:46:38.147Z,7.93
2019-01-17T20:49:08.912Z,8.83
2019-01-17T20:51:39.693Z,7.73
2019-01-17T20:54:10.386Z,8.10
2019-01-17T20:56:41.281Z,7.30
2019-01-17T20:59:12.067Z,7.90
2019-01-17T21:01:56.015Z,7.50
2019-01-17T21:04:27.047Z,8.07
2019-01-17T21:06:57.848Z,7.57
2019-01-17T21:09:28.751Z,7.27
2019-01-17T21:11:59.518Z,7.43
2019-01-17T21:14:30.327Z,7.97
2019-01-17T21:17:01.000Z,7.30
2019-01-17T21:19:32.078Z,7.40
2019-01-17T21:22:02.904Z,7.70
2019-01-17T21:24:34.014Z,6.97
2019-01-17T21:27:04.792Z,6.57
2019-01-17T21:29:35.506Z,7.73
2019-01-17T21:32:06.297Z,6.87
2019-01-17T21:34:36.934Z,7.00
2019-01-17T21:37:07.740Z,7.27
2019-01-17T21:39:38.426Z,6.90
2019-01-17T21:42:09.102Z,7.77
2019-01-17T21:44:40.330Z,7.73
2019-01-17T21:47:11.346Z,8.00
2019-01-17T21:49:43.286Z,7.20
2019-01-17T21:52:14.210Z,7.20
2019-01-17T21:54:44.864Z,6.90
2019-01-17T21:57:15.500Z,6.13
2019-01-17T21:59:46.560Z,6.50
2019-01-17T22:02:17.462Z,6.40
2019-01-17T22:04:49.092Z,6.07
2019-01-17T22:07:20.278Z,6.20
2019-01-17T22:09:51.516Z,6.37
2019-01-17T22:12:22.188Z,6.77
2019-01-17T22:14:52.879Z,6.50
2019-01-17T22:17:23.949Z,6.30
2019-01-17T22:19:55.063Z,5.83
2019-01-17T22:22:25.710Z,6.57
2019-01-17T22:24:56.483Z,6.30
2019-01-17T22:27:27.238Z,6.40
2019-01-17T22:29:58.189Z,7.03
2019-01-17T22:32:28.961Z,6.23
2019-01-17T22:34:59.618Z,6.87
2019-01-17T22:37:30.347Z,6.47
2019-01-17T22:40:01.282Z,6.40
2019-01-17T22:42:31.929Z,5.43
2019-01-17T22:45:02.989Z,5.20
2019-01-17T22:47:33.668Z,6.40
2019-01-17T22:50:05.363Z,6.23
2019-01-17T22:52:35.847Z,5.73
2019-01-17T22:55:07.228Z,6.20
2019-01-17T22:57:39.092Z,6.00
2019-01-17T23:00:34.755Z,5.63
2019-01-17T23:03:06.998Z,6.90
2019-01-17T23:05:37.665Z,5.97
2019-01-17T23:08:08.497Z,5.77
2019-01-17T23:10:39.278Z,6.13
2019-01-17T23:13:10.097Z,6.33
2019-01-17T23:15:41.134Z,7.10
2019-01-17T23:18:11.974Z,6.37
2019-01-17T23:20:42.642Z,6.43
2019-01-17T23:23:13.758Z,6.70
2019-01-17T23:25:44.449Z,6.10
2019-01-17T23:28:15.568Z,5.83
2019-01-17T23:30:46.289Z,5.53
2019-01-17T23:33:17.010Z,5.43
2019-01-17T23:35:47.723Z,5.40
2019-01-17T23:38:18.405Z,4.87
2019-01-17T23:40:50.130Z,5.57
2019-01-17T23:43:20.801Z,5.10
2019-01-17T23:45:51.653Z,4.77
2019-01-17T23:48:22.265Z,4.90
2019-01-17T23:50:52.708Z,5.10
2019-01-17T23:53:23.293Z,5.07
2019-01-17T23:55:53.703Z,5.20
2019-01-17T23:58:24.169Z,5.47
